Date,TemperatureHighF,TemperatureAvgF,TemperatureLowF,DewpointHighF,DewpointAvgF,DewpointLowF,HumidityHigh,HumidityAvg,HumidityLow,PressureMaxIn,PressureMinIn,WindSpeedMaxMPH,WindSpeedAvgMPH,GustSpeedMaxMPH,PrecipitationSumIn
2013-1-1,25,15,7,17,10,3,93,82,49,0.00,40.00,1,0,5,0.01
2013-1-2,16,10,3,11,3,-4,92,74,54,0.00,40.00,2,1,6,0.01
2013-1-3,41,25,6,10,0,-7,63,35,24,0.00,40.00,2,1,4,0.01
2013-1-4,38,29,19,10,2,-4,48,32,23,0.00,40.00,2,1,4,0.01
2013-1-5,32,19,6,14,2,-15,86,51,20,0.00,40.00,1,1,4,0.00
2013-1-6,42,32,27,14,1,-17,54,29,11,0.00,40.00,2,1,7,0.01
2013-1-7,33,27,18,17,12,8,69,53,35,0.00,40.00,1,1,7,0.00
2013-1-8,28,25,22,16,14,10,73,61,49,0.00,40.00,2,2,9,0.00
2013-1-9,47,37,28,18,10,1,64,35,19,0.00,40.00,3,2,9,0.01
2013-1-10,41,35,15,20,11,2,83,41,22,0.00,40.00,3,1,9,0.00
2013-1-11,12,2,-4,11,-2,-9,96,85,79,0.00,40.00,1,0,4,0.00
2013-1-12,4,-2,-7,-2,-6,-11,85,82,78,0.00,40.00,1,0,2,0.00
2013-1-13,2,-6,-13,-5,-15,-100,82,76,72,0.00,40.00,1,-43,3,0.00
2013-1-14,9,-1,-12,5,-8,-16,82,72,51,0.00,40.00,1,0,7,0.00
2013-1-15,32,24,12,27,19,7,94,82,70,0.00,40.00,2,1,6,0.02
2013-1-16,35,29,24,19,9,-100,73,53,38,0.00,40.00,2,-44,7,0.00
2013-1-17,39,28,19,14,5,-100,77,45,28,0.00,40.00,2,-42,6,0.00
2013-1-18,41,35,31,7,0,-100,34,27,21,0.00,40.00,2,-40,9,0.01
2013-1-19,38,31,25,8,-3,-100,40,27,19,0.00,40.00,1,-47,6,0.00
2013-1-20,32,24,13,17,10,-1,94,57,27,0.00,40.00,2,1,9,0.00
2013-1-21,38,31,22,14,8,-1,66,40,23,0.00,40.00,2,1,7,0.01
2013-1-22,43,35,24,1,-5,-11,29,18,12,0.00,40.00,2,1,6,0.00
2013-1-23,46,39,32,5,-2,-8,28,17,11,0.00,40.00,1,1,6,0.01
2013-1-24,41,36,27,21,12,-5,72,42,14,0.00,40.00,3,1,10,0.00
2013-1-25,44,34,29,21,17,11,64,50,36,0.00,40.00,2,1,6,0.00
2013-1-26,44,34,28,24,20,17,71,58,41,0.00,40.00,2,1,7,0.00
2013-1-27,33,26,18,24,20,17,99,80,57,0.00,40.00,1,0,4,0.01
2013-1-28,18,13,2,17,11,0,96,91,86,0.00,40.00,0,0,2,0.01
2013-1-29,12,5,-3,9,1,-7,89,86,81,0.00,40.00,0,-42,0,0.00
2013-1-30,22,15,4,19,12,-1,93,87,80,0.00,40.00,1,0,4,0.01
2013-1-31,26,23,11,21,18,9,94,84,75,0.00,40.00,2,1,7,0.01
2013-2-1,28,24,18,25,19,13,96,81,67,0.00,40.00,2,1,6,0.01
2013-2-2,34,25,16,17,14,10,86,65,42,0.00,40.00,1,1,6,0.00
2013-2-3,39,30,20,14,8,3,68,42,23,0.00,40.00,2,1,6,0.01
2013-2-4,34,29,26,18,14,9,63,54,46,0.00,40.00,2,1,6,0.00
2013-2-5,39,29,15,23,17,12,92,63,49,0.00,40.00,2,1,7,0.00
2013-2-6,31,25,15,23,16,11,94,71,43,0.00,40.00,1,0,5,0.00
2013-2-7,38,23,6,11,-1,-11,90,46,14,0.00,40.00,2,1,5,0.00
2013-2-8,32,25,17,7,-1,-9,62,35,18,0.00,40.00,1,1,5,0.01
2013-2-9,24,18,15,19,15,8,95,86,68,0.00,40.00,1,0,5,0.00
2013-2-10,15,11,0,14,8,-4,95,88,76,0.00,40.00,1,0,4,0.01
2013-2-11,24,9,-3,6,-2,-8,85,63,31,0.00,40.00,1,1,4,0.00
2013-2-12,29,19,8,17,10,-3,88,70,45,0.00,40.00,1,1,4,0.01
2013-2-13,31,24,19,21,16,13,97,73,50,0.00,40.00,2,1,8,0.01
2013-2-14,19,13,9,17,9,5,94,83,64,0.00,40.00,1,0,6,0.00
2013-2-15,27,19,11,20,14,8,94,82,57,0.00,40.00,1,-41,5,0.02
2013-2-16,42,31,22,22,17,9,87,59,35,0.00,40.00,2,1,6,0.01
2013-2-17,34,24,15,23,13,2,96,67,27,0.00,40.00,2,1,6,0.00
2013-2-18,20,13,2,13,8,-1,93,80,53,0.00,40.00,1,0,6,0.00
2013-2-19,41,22,0,7,-2,-12,80,43,14,0.00,40.00,2,1,6,0.01
2013-2-20,33,21,9,9,6,3,80,55,31,0.00,40.00,1,0,3,0.01
2013-2-21,24,13,5,17,7,0,91,77,55,0.00,40.00,1,-43,4,0.00
2013-2-22,26,14,3,10,-5,-100,90,60,39,0.00,40.00,2,-82,6,0.00
2013-2-23,26,21,14,22,10,-100,95,73,59,0.00,40.00,1,-44,6,0.01
2013-2-24,26,15,8,15,-4,-100,95,76,68,0.00,40.00,1,-133,3,0.01
2013-2-25,39,22,7,25,3,-100,90,64,40,0.00,40.00,1,-86,5,0.01
2013-2-26,20,16,8,18,13,5,95,86,72,0.00,40.00,1,0,4,0.01
2013-2-27,27,14,1,10,5,-2,90,71,38,0.00,40.00,2,1,5,0.00
2013-2-28,28,20,14,15,8,5,78,60,44,0.00,40.00,2,1,7,0.00
2013-3-1,38,30,13,30,20,-1,89,67,36,0.00,40.00,1,1,5,0.00
2013-3-2,50,37,28,24,20,16,72,54,26,0.00,40.00,2,1,6,0.00
2013-3-3,41,32,15,27,21,14,95,66,47,0.00,40.00,2,1,7,0.00
2013-3-4,15,10,1,11,0,-10,87,65,45,0.00,40.00,2,1,9,0.00
2013-3-5,38,21,5,2,-2,-11,75,41,14,0.00,40.00,2,1,6,0.01
2013-3-6,45,33,20,20,10,2,55,39,21,0.00,40.00,2,2,7,0.01
2013-3-7,34,29,20,27,14,6,86,55,34,0.00,40.00,1,1,6,0.00
2013-3-8,40,30,18,26,22,13,89,73,50,0.00,40.00,1,1,5,0.00
2013-3-9,27,22,12,23,18,10,94,84,70,0.00,40.00,1,1,6,0.00
2013-3-10,44,26,10,17,8,1,88,51,26,0.00,40.00,1,-38,5,0.01
2013-3-11,30,23,12,24,16,7,96,79,38,0.00,40.00,3,1,9,0.01
2013-3-12,38,22,4,19,11,1,93,69,27,0.00,40.00,2,1,6,0.01
2013-3-13,49,39,32,25,23,19,66,52,35,0.00,40.00,2,2,7,0.01
2013-3-14,52,43,33,26,23,19,64,47,31,0.00,40.00,2,1,7,0.00
2013-3-15,49,41,30,27,20,16,84,45,30,0.00,40.00,2,1,8,0.00
2013-3-16,35,29,23,28,25,22,97,85,65,0.00,40.00,1,0,5,0.00
2013-3-17,32,24,15,26,16,4,93,73,44,0.00,40.00,2,1,8,0.00
2013-3-18,23,17,8,13,5,0,88,62,38,0.00,40.00,2,1,8,0.00
2013-3-19,20,15,7,16,10,1,90,78,56,0.00,40.00,2,1,7,0.00
2013-3-20,42,32,10,24,13,-3,70,47,28,0.00,40.00,2,1,7,0.01
2013-3-21,35,24,13,25,20,11,100,84,48,0.00,40.00,1,-31,4,0.01
2013-3-22,18,12,5,13,9,3,92,85,69,0.00,40.00,1,0,5,0.00
2013-3-23,15,4,-4,9,0,-8,88,82,76,0.00,40.00,1,-43,4,0.01
2013-3-24,10,5,-4,5,0,-7,87,80,67,0.00,40.00,2,0,5,0.00
2013-3-25,30,17,0,13,3,-5,85,56,33,0.00,40.00,1,-34,4,0.02
2013-3-26,35,25,8,8,4,-2,71,44,27,0.00,40.00,2,1,4,0.01
2013-3-27,43,29,17,19,14,8,77,56,33,0.00,40.00,2,-66,7,0.00
2013-3-28,46,34,22,23,19,14,84,57,31,0.00,40.00,2,1,9,0.00
2013-3-29,46,39,28,32,23,16,100,54,32,0.00,40.00,2,1,5,0.01
2013-3-30,41,34,25,31,22,-100,100,72,49,0.00,40.00,2,1,6,0.01
2013-3-31,43,34,23,26,20,16,82,57,36,0.00,40.00,2,1,7,0.00
2013-4-1,40,31,21,26,17,12,90,59,31,0.00,40.00,2,-27,5,0.00
2013-4-2,49,36,24,22,17,11,67,48,30,0.00,40.00,1,1,5,0.00
2013-4-3,47,38,29,27,21,14,85,50,36,0.00,40.00,1,1,5,0.00
2013-4-4,53,43,28,30,24,20,83,50,29,0.00,40.00,2,-71,7,0.00
2013-4-5,47,40,30,35,29,23,100,69,47,0.00,40.00,2,1,5,0.00
2013-4-6,46,36,28,32,28,21,97,76,44,0.00,40.00,2,1,8,0.01
2013-4-7,44,36,29,30,25,21,95,67,43,0.00,40.00,2,1,6,0.00
2013-4-8,31,18,9,27,16,6,99,89,71,0.00,40.00,1,0,5,0.00
2013-4-9,17,10,2,11,7,-1,89,84,77,0.00,40.00,1,0,4,0.01
2013-4-10,34,24,7,27,16,5,92,75,55,0.00,40.00,1,0,5,0.01
2013-4-11,38,31,26,31,26,21,99,85,61,0.00,40.00,2,-26,6,0.01
2013-4-12,34,26,19,25,20,12,94,78,40,0.00,40.00,2,1,6,0.00
2013-4-13,42,33,24,29,22,13,98,66,45,0.00,40.00,2,1,7,0.01
2013-4-14,26,18,7,20,12,5,92,78,61,0.00,40.00,2,1,6,0.00
2013-4-15,17,10,-1,11,6,-3,89,82,70,0.00,40.00,1,1,4,0.00
2013-4-16,15,10,5,11,6,1,91,84,77,0.00,40.00,1,0,4,0.01
2013-4-17,16,9,1,10,5,-2,91,84,74,0.00,40.00,2,0,6,0.01
2013-4-18,32,19,-1,16,7,-4,87,60,37,0.00,40.00,2,1,6,0.01
2013-4-19,38,30,20,23,19,13,80,63,44,0.00,40.00,2,1,6,0.01
2013-4-20,47,34,28,31,25,19,94,70,43,0.00,40.00,2,1,7,0.01
2013-4-21,37,28,16,29,24,15,98,86,56,0.00,40.00,1,0,4,0.01
2013-4-22,18,12,2,16,9,-1,96,87,77,0.00,40.00,1,-41,3,0.04
2013-4-23,31,18,-1,20,10,-4,88,70,56,0.00,40.00,1,1,5,0.01
2013-4-24,36,32,28,18,16,14,64,52,48,0.00,40.00,2,2,8,0.00
2013-4-25,50,41,30,18,9,-100,55,31,20,0.00,40.00,3,-24,7,0.00
2013-4-26,55,43,29,24,17,12,62,38,22,0.00,40.00,2,1,8,0.00
2013-4-27,58,47,35,24,20,15,55,36,20,0.00,40.00,2,1,7,0.00
2013-4-28,46,39,32,38,30,22,95,72,38,0.00,40.00,1,0,5,0.00
2013-4-29,52,42,29,34,25,19,100,55,30,0.00,40.00,2,1,9,0.01
2013-4-30,26,23,19,26,21,18,100,94,85,0.00,40.00,1,-80,6,0.02
2013-5-1,28,20,14,21,16,10,97,84,66,0.00,40.00,1,0,4,0.01
2013-5-2,44,29,13,23,17,10,92,65,41,0.00,40.00,1,1,4,0.01
2013-5-3,49,38,28,33,22,15,96,55,27,0.00,40.00,2,1,4,0.00
2013-5-4,40,34,32,36,23,-100,100,88,84,0.00,40.00,1,-77,4,0.01
2013-5-5,46,37,26,31,27,23,100,69,49,0.00,40.00,1,1,5,0.00
2013-5-6,55,45,30,32,27,24,84,53,34,0.00,40.00,2,-32,5,0.00
2013-5-7,60,45,33,32,28,25,74,54,29,0.00,40.00,2,1,7,0.00
2013-5-8,53,44,34,34,30,25,79,59,35,0.00,40.00,2,1,8,0.00
2013-5-9,52,42,33,38,30,26,82,65,38,0.00,40.00,2,-68,5,0.00
2013-5-10,54,41,32,37,19,-100,88,61,34,0.00,40.00,2,-42,6,0.00
2013-5-11,54,41,30,37,24,-100,97,63,33,0.00,40.00,1,1,5,0.00
2013-5-12,67,54,42,37,32,29,68,46,26,0.00,40.00,2,1,8,0.01
2013-5-13,73,60,47,41,32,26,60,36,20,0.00,40.00,2,1,6,0.00
2013-5-14,70,58,41,45,36,27,85,48,22,0.00,40.00,3,1,12,0.00
2013-5-15,63,49,34,39,36,32,94,66,36,0.00,40.00,2,0,9,0.00
2013-5-16,55,48,42,45,32,-100,94,72,55,0.00,40.00,1,1,6,0.00
2013-5-17,54,44,36,48,38,-100,100,90,66,0.00,40.00,1,1,4,0.00
2013-5-18,50,41,34,46,40,34,100,96,84,0.00,40.00,1,1,5,0.01
2013-5-19,41,39,36,41,39,36,100,100,100,0.00,40.00,1,0,5,0.05
2013-5-20,39,35,32,37,34,31,100,96,81,0.00,40.00,1,1,6,0.04
2013-5-21,48,40,33,36,27,-100,100,77,61,0.00,40.00,2,-80,5,0.02
2013-5-22,54,44,31,44,37,29,100,80,52,0.00,40.00,1,1,5,0.00
2013-5-23,67,54,41,42,35,26,100,53,21,0.00,40.00,3,2,7,0.01
2013-5-24,60,49,38,43,32,13,100,61,16,0.00,40.00,2,1,6,0.00
2013-5-25,68,52,34,38,25,17,94,44,15,0.00,40.00,2,1,7,0.00
2013-5-26,62,49,38,48,42,34,100,78,55,0.00,40.00,2,1,6,0.00
2013-5-27,57,45,36,45,36,25,97,72,36,0.00,40.00,3,1,9,0.01
2013-5-28,55,44,35,43,35,29,100,73,44,0.00,40.00,2,1,6,0.00
2013-5-29,44,41,38,44,41,38,100,100,100,0.00,40.00,1,0,3,0.02
2013-5-30,41,38,35,40,37,34,100,97,90,0.00,40.00,2,1,7,0.01
2013-5-31,42,38,34,35,33,30,100,84,73,0.00,40.00,2,1,7,0.00
2013-6-1,48,39,31,41,36,31,100,90,75,0.00,40.00,1,0,4,0.02
2013-6-2,64,52,37,47,40,32,99,67,30,0.00,40.00,2,1,7,0.00
2013-6-3,53,46,38,42,33,26,100,62,36,0.00,40.00,3,2,9,0.00
2013-6-4,40,34,30,36,32,26,100,94,74,0.00,40.00,1,1,6,0.00
2013-6-5,51,40,28,42,36,28,100,86,70,0.00,40.00,1,0,5,0.01
2013-6-6,60,50,38,43,39,32,91,68,46,0.00,40.00,2,-20,5,0.00
2013-6-7,69,55,41,51,40,36,89,61,33,0.00,40.00,2,1,7,0.00
2013-6-8,58,48,41,46,42,39,100,83,51,0.00,40.00,2,1,7,0.02
2013-6-9,73,58,40,44,34,28,82,46,20,0.00,40.00,2,1,8,0.01
2013-6-10,74,60,48,50,44,34,89,58,37,0.00,40.00,2,0,8,0.01
2013-6-11,74,55,44,59,49,43,100,84,44,0.00,40.00,2,1,6,0.00
2013-6-12,70,53,43,53,47,38,100,85,32,0.00,40.00,3,1,7,0.01
2013-6-13,74,57,45,55,47,38,100,76,28,0.00,40.00,2,1,12,0.01
2013-6-14,59,49,37,51,35,23,100,66,29,0.00,40.00,3,1,7,0.00
2013-6-15,65,48,31,40,29,10,89,57,12,0.00,40.00,2,1,6,0.01
2013-6-16,66,53,40,45,37,27,86,55,35,0.00,40.00,2,-69,5,0.01
2013-6-17,63,54,45,51,46,39,97,76,54,0.00,40.00,1,1,5,0.00
2013-6-18,72,57,46,49,39,29,99,55,25,0.00,40.00,2,1,7,0.00
2013-6-19,79,66,49,46,22,-100,68,28,10,0.00,40.00,2,-43,10,0.01
2013-6-20,65,54,42,40,20,12,70,31,13,0.00,40.00,4,1,10,0.00
2013-6-22,51,45,40,47,44,40,100,94,85,0.00,40.00,1,1,5,0.00
2013-6-23,61,50,34,47,37,31,100,67,33,0.00,40.00,3,1,11,0.03
2013-6-24,75,60,44,40,33,24,86,41,16,0.00,40.00,2,1,7,0.01
2013-6-25,67,58,49,48,37,29,94,49,29,0.00,40.00,2,1,7,0.01
2013-6-26,70,60,49,48,41,35,76,52,34,0.00,40.00,2,1,7,0.00
2013-6-27,76,61,46,53,46,37,92,62,25,0.00,40.00,2,1,11,0.01
2013-6-28,74,63,50,52,48,45,92,61,41,0.00,40.00,2,-28,5,0.01
2013-6-29,72,62,51,55,50,43,79,63,50,0.00,40.00,1,1,5,0.00
2013-6-30,73,63,52,54,50,46,91,66,46,0.00,40.00,2,0,6,0.00
2013-7-1,72,60,50,53,48,43,84,66,44,0.00,40.00,2,1,5,0.00
2013-7-2,75,61,47,51,46,43,92,62,36,0.00,40.00,2,1,5,0.00
2013-7-3,77,66,53,56,47,31,79,52,36,0.00,40.00,2,1,6,0.00
2013-7-4,71,60,52,61,52,38,100,75,53,0.00,40.00,1,1,5,0.00
2013-7-5,64,57,50,58,44,-100,100,83,71,0.00,40.00,1,-64,4,0.00
2013-7-6,67,57,50,57,48,41,99,75,49,0.00,40.00,1,-36,10,0.01
2013-7-7,76,62,51,51,45,34,98,59,22,0.00,40.00,2,1,8,0.01
2013-7-8,78,61,51,48,34,-100,88,52,27,0.00,40.00,2,-70,6,0.00
2013-7-9,67,56,46,51,46,40,92,71,50,0.00,40.00,2,1,5,0.00
2013-7-10,75,58,50,52,41,-100,94,59,34,0.00,40.00,2,-96,7,0.00
2013-7-11,85,68,54,47,40,31,69,40,16,0.00,40.00,2,-25,5,0.00
2013-7-12,69,60,53,53,46,37,94,63,32,0.00,40.00,1,0,4,0.00
2013-7-13,76,64,53,52,39,28,91,44,19,0.00,40.00,2,-114,6,0.01
2013-7-14,72,60,49,54,50,46,99,72,48,0.00,40.00,1,-108,5,0.01
2013-7-15,78,63,54,48,44,35,75,52,24,0.00,40.00,2,-124,6,0.01
2013-7-16,73,58,52,61,49,34,97,73,43,0.00,40.00,1,1,4,0.00
2013-7-17,75,63,51,58,52,47,96,69,49,0.00,40.00,2,-34,5,0.01
2013-7-18,73,67,55,55,50,45,81,56,44,0.00,40.00,2,-25,5,0.01
2013-7-19,77,64,51,54,47,41,92,59,33,0.00,40.00,1,1,6,0.00
2013-7-20,72,62,52,48,45,43,73,55,38,0.00,40.00,1,1,5,0.00
2013-7-21,75,63,51,50,40,31,73,46,26,0.00,40.00,2,-50,5,0.00
2013-7-22,82,65,50,43,35,22,62,37,11,0.00,40.00,2,1,8,0.01
2013-7-23,73,62,51,50,41,37,80,49,28,0.00,40.00,2,1,5,0.00
2013-7-24,73,62,47,51,44,34,77,54,24,0.00,40.00,1,1,5,0.00
2013-7-25,68,56,49,55,48,36,98,74,53,0.00,40.00,2,0,6,0.00
2013-7-26,70,59,46,57,48,43,94,67,50,0.00,40.00,1,-26,4,0.69
2013-7-27,68,58,52,53,44,36,100,63,39,0.00,40.00,1,-68,4,0.67
2013-7-28,63,55,49,56,46,42,89,71,48,0.00,40.00,1,1,5,0.01
2013-7-29,58,52,47,54,48,43,99,86,66,0.00,40.00,1,1,4,0.01
2013-7-30,68,57,48,51,44,34,100,66,33,0.00,40.00,2,-31,8,0.01
2013-7-31,69,59,44,55,48,44,100,71,44,0.00,40.00,1,1,6,0.02
2013-8-1,71,61,49,51,46,41,83,59,40,0.00,40.00,1,1,6,0.01
2013-8-2,72,61,48,54,44,27,99,62,20,0.00,40.00,2,-49,7,0.00
2013-8-3,69,58,45,59,52,43,97,81,52,0.00,40.00,1,0,4,0.00
2013-8-4,78,63,48,56,47,32,100,65,19,0.00,40.00,2,1,10,0.01
2013-8-5,78,60,47,52,44,32,99,65,19,0.00,40.00,2,-124,6,0.00
2013-8-6,64,56,44,50,45,39,98,67,49,0.00,40.00,2,1,5,0.00
2013-8-7,71,57,45,52,45,41,88,65,41,0.00,40.00,1,1,6,0.00
2013-8-8,66,54,46,51,47,40,99,77,48,0.00,40.00,2,1,6,0.00
2013-8-9,59,51,45,54,50,45,100,96,71,0.00,40.00,1,-44,3,0.00
2013-8-10,69,58,47,53,47,39,100,67,38,0.00,40.00,1,1,5,0.02
2013-8-11,71,57,46,48,40,35,78,56,34,0.00,40.00,1,-53,5,0.01
2013-8-12,70,58,50,51,34,-100,67,50,33,0.00,40.00,1,-43,6,0.00
2013-8-13,62,52,45,53,43,36,97,73,48,0.00,40.00,2,1,4,0.00
2013-8-14,65,54,44,49,43,39,90,69,43,0.00,40.00,2,-32,4,0.02
2013-8-15,74,59,46,43,35,-100,75,48,31,0.00,40.00,1,-31,5,0.01
2013-8-16,82,68,53,43,28,-100,61,28,13,0.00,40.00,1,1,4,0.01
2013-8-17,81,66,59,44,29,-100,55,30,14,0.00,40.00,2,1,5,0.01
2013-8-18,78,64,53,49,41,35,68,44,24,0.00,40.00,2,1,6,0.00
2013-8-19,76,60,52,46,35,-100,66,47,28,0.00,40.00,2,1,7,0.00
2013-8-20,76,66,57,45,38,34,51,38,26,0.00,40.00,1,-73,6,0.00
2013-8-21,68,61,54,47,42,38,64,51,34,0.00,40.00,1,0,4,0.00
2013-8-22,73,63,54,53,49,43,76,61,34,0.00,40.00,1,0,5,0.00
2013-8-23,74,67,57,49,46,40,68,47,29,0.00,40.00,1,1,5,0.00
2013-8-24,67,56,50,58,48,-100,100,84,58,0.00,40.00,1,0,8,0.00
2013-8-25,73,61,53,49,44,39,73,55,31,0.00,40.00,2,1,4,0.00
2013-8-26,72,65,57,45,42,40,57,44,33,0.00,40.00,1,1,5,0.01
2013-8-27,72,62,56,52,45,43,64,54,38,0.00,40.00,1,0,5,0.00
2013-8-28,78,72,62,50,44,40,49,38,27,0.00,40.00,2,1,9,0.01
2013-8-29,75,64,53,48,44,40,76,49,35,0.00,40.00,1,-62,5,0.00
2013-8-30,79,67,52,52,38,28,69,40,16,0.00,40.00,2,1,7,0.00
2013-8-31,66,55,48,45,37,-100,77,56,41,0.00,40.00,2,1,4,0.01
2013-9-1,76,60,45,48,38,32,77,50,25,0.00,40.00,1,1,5,0.00
2013-9-2,77,65,52,51,40,30,69,43,20,0.00,40.00,1,1,5,0.01
2013-9-3,71,60,54,54,50,48,85,72,53,0.00,40.00,1,-71,3,0.00
2013-9-4,73,66,54,54,51,46,90,60,41,0.00,40.00,1,1,5,0.00
2013-9-5,80,67,55,55,47,38,76,51,24,0.00,40.00,1,1,6,0.01
2013-9-6,78,65,55,49,44,41,72,49,27,0.00,40.00,1,1,5,0.00
2013-9-7,73,62,52,55,46,-100,87,62,41,0.00,40.00,2,1,6,0.00
2013-9-8,63,54,47,59,52,47,100,92,73,0.00,40.00,2,-52,5,0.00
2013-9-9,57,48,40,52,44,40,100,86,64,0.00,40.00,1,0,4,0.00
2013-9-10,61,50,40,46,42,38,94,77,54,0.00,40.00,1,0,4,0.00
2013-9-11,64,57,44,45,41,35,75,56,43,0.00,40.00,1,-76,4,0.00
2013-9-12,65,52,41,49,43,38,91,74,49,0.00,40.00,2,1,5,0.00
2013-9-13,61,53,47,55,49,44,100,87,63,0.00,40.00,1,0,3,0.01
2013-9-14,56,48,43,53,45,-100,100,96,89,0.00,40.00,1,0,5,0.08
2013-9-15,54,50,44,54,49,44,100,98,94,0.00,40.00,1,-55,3,0.09
2013-9-16,68,53,44,50,46,40,100,78,53,0.00,40.00,1,1,4,0.01
2013-9-17,72,57,46,49,43,37,100,66,31,0.00,40.00,2,1,8,0.01
2013-9-18,47,42,35,46,40,31,100,89,72,0.00,40.00,2,1,6,0.01
2013-9-21,69,60,52,29,20,-100,33,23,19,0.00,40.00,2,2,6,0.01
2013-9-22,64,55,43,38,34,20,73,46,29,0.00,40.00,2,-53,6,0.01
2013-9-23,52,43,35,42,37,29,100,81,41,0.00,40.00,1,0,5,0.00
2013-9-24,62,52,36,34,27,24,81,41,24,0.00,40.00,3,1,8,0.01
2013-9-25,49,41,35,39,35,30,100,81,49,0.00,40.00,1,0,5,0.00
2013-9-26,36,33,28,36,33,28,100,100,99,0.00,40.00,1,0,5,0.03
2013-9-27,34,29,26,32,28,25,100,98,89,0.00,40.00,0,-59,3,0.02
2013-9-28,44,35,27,33,26,-100,95,76,60,0.00,40.00,3,2,9,0.01
2013-9-29,53,47,43,34,30,27,60,53,45,0.00,40.00,3,2,10,0.01
2013-9-30,55,47,39,42,36,31,100,68,54,0.00,40.00,4,-116,11,0.01
2013-10-1,52,41,36,32,28,22,81,64,31,0.00,40.00,2,0,5,0.00
2013-10-2,43,36,29,35,32,29,100,84,58,0.00,40.00,1,0,4,0.01
2013-10-3,34,31,26,34,31,26,100,100,99,0.00,40.00,0,0,3,0.03
2013-10-4,25,22,20,24,22,20,100,98,96,0.00,40.00,0,-45,0,0.07
2013-10-5,42,25,14,33,22,12,100,92,69,0.00,40.00,1,0,3,0.01
2013-10-6,55,39,29,39,31,18,100,79,34,0.00,40.00,1,-66,4,0.01
2013-10-7,66,52,39,23,16,9,47,27,11,0.00,40.00,2,1,6,0.00
2013-10-8,49,40,33,33,14,-100,87,55,46,0.00,40.00,1,-103,4,0.00
2013-10-9,44,36,30,35,32,29,100,84,65,0.00,40.00,1,0,4,0.00
2013-10-10,50,41,30,38,32,29,99,72,48,0.00,40.00,1,1,6,0.00
2013-10-11,36,31,25,33,26,20,100,82,63,0.00,40.00,2,1,6,0.00
2013-10-12,40,28,21,27,19,-100,91,75,42,0.00,40.00,1,0,4,0.01
2013-10-13,43,36,30,34,28,22,100,75,54,0.00,40.00,1,-90,3,0.00
2013-10-14,32,26,20,32,26,20,100,99,95,0.00,40.00,1,0,4,0.02
2013-10-15,34,26,20,28,22,15,99,86,53,0.00,40.00,1,-69,3,0.01
2013-10-16,41,26,17,26,18,9,94,73,44,0.00,40.00,2,-153,3,0.00
2013-10-17,28,24,15,26,22,15,96,89,81,0.00,40.00,1,0,3,0.00
2013-10-18,33,28,20,22,19,16,99,71,50,0.00,40.00,2,1,6,0.01
2013-10-19,44,34,27,28,16,-100,81,56,43,0.00,40.00,1,1,6,0.00
2013-10-20,32,30,28,29,26,23,100,85,73,0.00,40.00,1,1,5,0.00
2013-10-21,39,37,32,32,29,26,83,75,65,0.00,40.00,1,1,5,0.01
2013-10-22,51,41,34,32,27,21,80,58,37,0.00,40.00,2,-90,6,0.00
2013-10-23,44,34,29,33,28,23,93,79,62,0.00,40.00,1,1,3,0.00
2013-10-24,46,37,30,33,28,24,78,70,57,0.00,40.00,1,1,3,0.00
2013-10-25,39,36,34,29,23,19,80,58,47,0.00,40.00,1,1,3,0.00
2013-10-26,54,40,33,25,13,-100,63,40,25,0.00,40.00,1,1,4,0.00
2013-10-27,47,39,29,26,24,21,86,59,36,0.00,40.00,1,0,5,0.00
2013-10-28,29,25,22,29,25,22,100,99,96,0.00,40.00,1,0,2,0.00
2013-10-29,28,23,19,27,22,18,98,96,90,0.00,40.00,1,0,5,0.00
2013-10-30,35,29,21,27,25,21,99,85,72,0.00,40.00,1,0,3,0.00
2013-10-31,38,33,29,30,26,22,90,75,64,0.00,40.00,2,1,7,0.00
2013-11-1,34,28,24,23,19,16,93,70,47,0.00,40.00,2,1,6,0.00
2013-11-2,51,42,28,17,-9,-100,62,22,13,0.00,40.00,2,-104,9,0.01
2013-11-3,40,29,17,28,21,11,97,77,31,0.00,40.00,2,0,5,0.00
2013-11-4,23,16,8,18,12,5,95,86,64,0.00,40.00,1,0,4,0.01
2013-11-5,23,16,5,12,7,2,91,70,51,0.00,40.00,2,1,7,0.00
2013-11-6,29,24,19,19,16,11,81,71,58,0.00,40.00,1,1,6,0.01
2013-11-7,39,33,25,26,23,17,73,66,57,0.00,40.00,2,1,6,0.00
2013-11-8,38,33,29,26,19,13,79,57,40,0.00,40.00,2,-124,9,0.00
2013-11-12,54,43,28,23,13,5,81,32,15,0.00,40.00,2,1,5,0.00
2013-11-13,47,43,39,27,24,19,58,46,39,0.00,40.00,1,-166,6,0.00
2013-11-14,35,31,27,19,14,11,57,51,36,0.00,40.00,1,0,5,0.00
2013-11-15,33,30,26,15,12,9,51,47,42,0.00,40.00,1,1,5,0.00
2013-11-16,31,26,24,22,10,-100,92,60,42,0.00,40.00,2,1,9,0.00
2013-11-17,24,22,21,20,14,9,96,71,58,0.00,40.00,2,1,8,0.00
2013-11-18,45,37,30,13,11,10,47,34,24,0.00,40.00,2,2,7,0.01
2013-11-19,43,38,34,24,20,13,64,48,33,0.00,40.00,2,-70,6,0.00
2013-11-20,34,24,10,23,16,6,91,73,58,0.00,40.00,2,1,5,0.00
2013-11-21,20,13,8,11,5,0,90,72,52,0.00,40.00,1,-125,3,0.01
2013-11-22,25,16,10,5,0,-9,68,50,32,0.00,40.00,1,0,3,0.01
2013-11-23,39,28,17,15,3,-100,60,40,23,0.00,40.00,2,1,3,0.01
2013-11-24,42,33,26,20,8,-5,59,39,14,0.00,40.00,1,0,4,0.00
2013-11-25,31,28,25,18,17,13,68,62,57,0.00,40.00,1,0,3,0.00
2013-11-26,38,33,30,23,17,10,61,51,43,0.00,40.00,1,1,4,0.00
2013-11-27,44,34,24,19,16,13,80,52,33,0.00,40.00,1,-66,6,0.00
2013-11-28,45,36,23,18,16,13,77,45,31,0.00,40.00,2,1,4,0.00
2013-11-29,44,36,28,19,16,14,61,44,32,0.00,40.00,1,1,5,0.00
2013-11-30,35,30,28,22,15,-100,69,59,53,0.00,40.00,1,1,4,0.00
2013-12-1,36,32,29,22,21,20,72,65,56,0.00,40.00,2,2,8,0.00
2013-12-2,38,33,24,29,26,23,99,77,63,0.00,40.00,2,1,8,0.00
2013-12-3,4,-4,-11,-1,-8,-15,87,82,81,0.00,40.00,0,0,2,0.00
2013-12-4,-4,-10,-15,-10,-15,-20,81,79,77,0.00,40.00,0,0,2,0.00
2013-12-5,-1,-13,-20,-7,-18,-25,80,77,74,0.00,40.00,1,0,3,0.00
2013-12-6,-6,-17,-27,-11,-23,-33,77,75,72,0.00,40.00,0,0,2,0.01
2013-12-7,5,-5,-17,0,-15,-100,86,76,78,0.00,40.00,0,0,2,0.01
2013-12-8,2,-4,-9,-5,-10,-15,85,78,71,0.00,40.00,1,0,3,0.00
2013-12-9,14,8,-9,8,1,-15,81,74,68,0.00,40.00,2,1,8,0.01
2013-12-10,19,11,2,10,4,-1,87,72,64,0.00,40.00,2,1,8,0.01
2013-12-11,27,18,6,8,0,-4,75,46,32,0.00,40.00,2,1,7,0.00
2013-12-12,43,33,27,17,12,8,53,42,32,0.00,40.00,2,1,6,0.01
2013-12-13,27,24,22,19,16,11,80,71,50,0.00,40.00,1,0,4,0.00
2013-12-14,30,25,21,18,6,-100,71,57,57,0.00,40.00,2,1,5,0.00
2013-12-15,41,37,33,14,11,9,46,34,29,0.00,40.00,2,2,6,0.00
2013-12-16,36,32,31,16,14,13,52,47,40,0.00,40.00,3,1,10,0.00
2013-12-17,43,39,31,17,14,10,54,36,27,0.00,40.00,3,2,12,0.00
2013-12-18,44,37,24,18,13,9,66,38,27,0.00,40.00,2,1,6,0.00
2013-12-19,22,13,4,16,10,2,99,87,70,0.00,40.00,1,0,3,0.00
2013-12-20,20,12,2,8,2,-6,87,64,32,0.00,40.00,2,1,4,0.00
2013-12-21,22,17,12,16,9,-100,94,77,60,0.00,40.00,1,-25,5,0.01
2013-12-22,14,12,9,10,7,4,89,83,73,0.00,40.00,1,0,5,0.00
2013-12-23,34,24,7,24,18,4,90,77,67,0.00,40.00,2,1,8,0.02
2013-12-24,25,19,13,23,17,11,98,89,80,0.00,40.00,1,0,6,0.00
2013-12-25,33,22,12,15,10,4,88,65,33,0.00,40.00,2,1,6,0.01
2013-12-26,38,33,26,24,20,14,64,58,46,0.00,40.00,2,1,6,0.01
2013-12-27,49,39,33,25,17,6,61,44,22,0.00,40.00,1,1,5,0.00
2013-12-28,32,20,14,19,3,-100,96,65,37,0.00,40.00,1,0,7,0.00
2013-12-29,26,20,9,11,7,4,79,58,39,0.00,40.00,2,1,8,0.00
2013-12-30,27,26,25,20,15,11,78,65,54,0.00,40.00,2,1,6,0.00
2013-12-31,31,29,23,22,20,18,98,70,63,0.00,40.00,2,1,6,0.00
2014-1-1,21,18,13,20,15,10,98,91,77,0.00,40.00,1,0,4,0.00
2014-1-2,32,20,11,22,15,9,95,81,67,0.00,40.00,2,1,6,0.01